Time;durP1;ratioP1;P1;durP2;ratioP2;P2;SDS_P1;SDS_P2;PMS_P1;PMS_P2;Temp;Humidity;BMP_temperature;BMP_pressure;BME280_temperature;BME280_humidity;BME280_pressure;Samples;Min_cycle;Max_cycle;Signal;HPM_P1;HPM_P2
2023/04/11 00:00:02;;;;;;;;;;;;;;;;;;4860001;29;19920;-75
2023/04/11 00:02:40;;;;;;;;;;;;;;;;;;4859877;29;20011;-75
2023/04/11 00:05:05;;;;;;;;;;;;;;;;;;4864327;29;20014;-74
2023/04/11 00:07:31;;;;;;;;;;;;;;;;;;4866130;29;19963;-75
2023/04/11 00:09:56;;;;;;;;;;;;;;;;;;4883527;29;20113;-74
2023/04/11 00:12:22;;;;;;;;;;;;;;;;;;4884654;29;19923;-75
2023/04/11 00:14:47;;;;;;;;;;;;;;;;;;4883125;29;19964;-75
2023/04/11 00:17:13;;;;;;;;;;;;;;;;;;4883506;29;19968;-75
2023/04/11 00:19:38;;;;;;;;;;;;;;;;;;4883539;29;20002;-75
2023/04/11 00:22:04;;;;;;;;;;;;;;;;;;4880216;29;19964;-75
2023/04/11 00:24:29;;;;;;;;;;;;;;;;;;4883429;29;19916;-75
2023/04/11 00:26:56;;;;;;;;;;;;;;;;;;4867819;29;19920;-74
2023/04/11 00:29:22;;;;;;;;;;;;;;;;;;4883573;29;20040;-76
2023/04/11 00:31:47;;;;;;;;;;;;;;;;;;4883635;29;19956;-77
2023/04/11 00:34:14;;;;;;;;;;;;;;;;;;4883525;29;19916;-78
2023/04/11 00:36:40;;;;;;;;;;;;;;;;;;4882210;29;19916;-74
2023/04/11 00:39:06;;;;;;;;;;;;;;;;;;4895942;29;19972;-75
2023/04/11 00:41:31;;;;;;;;;;;;;;;;;;4866618;29;19924;-77
2023/04/11 00:43:57;;;;;;;;;;;;;;;;;;4905733;23;19951;-78
2023/04/11 00:46:22;;;;;;;;;;;;;;;;;;4906708;29;19970;-79
2023/04/11 00:48:48;;;;;;;;;;;;;;;;;;4906555;29;19915;-79
2023/04/11 00:51:13;;;;;;;;;;;;;;;;;;4906265;29;20402;-79
2023/04/11 00:53:38;;;;;;;;;;;;;;;;;;4896756;29;19916;-79
2023/04/11 00:56:04;;;;;;;;;;;;;;;;;;4902719;29;20240;-77
2023/04/11 00:58:29;;;;;;;;;;;;;;;;;;4903379;29;19927;-77
2023/04/11 01:00:54;;;;;;;;;;;;;;;;;;4903023;29;20407;-78
2023/04/11 01:03:21;;;;;;;;;;;;;;;;;;4902617;29;20488;-78
2023/04/11 01:05:47;;;;;;;;;;;;;;;;;;4902912;29;19915;-77
2023/04/11 01:08:12;;;;;;;;;;;;;;;;;;4887675;29;19985;-78
2023/04/11 01:10:37;;;;;;;;;;;;;;;;;;4886676;29;19915;-78
2023/04/11 01:13:03;;;;;;;;;;;;;;;;;;4904601;29;20467;-78
2023/04/11 01:15:28;;;;;;;;;;;;;;;;;;4872205;29;19923;-78
2023/04/11 01:17:54;;;;;;;;;;;;;;;;;;4886282;29;19926;-78
2023/04/11 01:20:20;;;;;;;;;;;;;;;;;;4900074;29;19915;-78
2023/04/11 01:22:46;;;;;;;;;;;;;;;;;;4902596;29;19967;-77
2023/04/11 01:25:11;;;;;;;;;;;;;;;;;;4899279;29;20430;-78
2023/04/11 01:27:36;;;;;;;;;;;;;;;;;;4902108;29;19922;-78
2023/04/11 01:30:02;;;;;;;;;;;;;;;;;;4903704;29;20292;-77
2023/04/11 01:32:27;;;;;;;;;;;;;;;;;;4901608;29;19916;-77
2023/04/11 01:34:52;;;;;;;;;;;;;;;;;;4914380;29;19916;-78
2023/04/11 01:37:18;;;;;;;;;;;;;;;;;;4907006;29;19900;-77
2023/04/11 01:39:43;;;;;;;;;;;;;;;;;;4922099;29;19920;-78
2023/04/11 01:42:08;;;;;;;;;;;;;;;;;;4919812;29;20015;-78
2023/04/11 01:44:34;;;;;;;;;;;;;;;;;;4917587;29;19927;-78
2023/04/11 01:47:02;;;;;;;;;;;;;;;;;;4919556;29;19922;-78
2023/04/11 01:49:27;;;;;;;;;;;;;;;;;;4915189;29;19916;-78
2023/04/11 01:51:53;;;;;;;;;;;;;;;;;;4896426;29;19923;-78
2023/04/11 01:54:19;;;;;;;;;;;;;;;;;;4892652;29;19916;-78
2023/04/11 01:56:44;;;;;;;;;;;;;;;;;;4904439;29;19958;-78
2023/04/11 01:59:09;;;;;;;;;;;;;;;;;;4903655;29;19915;-78
2023/04/11 02:01:35;;;;;;;;;;;;;;;;;;4901276;29;19919;-78
2023/04/11 02:04:00;;;;;;;;;;;;;;;;;;4900719;29;20299;-78
2023/04/11 02:06:26;;;;;;;;;;;;;;;;;;4899106;29;19916;-78
2023/04/11 02:08:51;;;;;;;;;;;;;;;;;;4900196;29;20016;-78
2023/04/11 02:11:17;;;;;;;;;;;;;;;;;;4900462;29;19950;-77
2023/04/11 02:13:43;;;;;;;;;;;;;;;;;;4878834;29;19912;-78
2023/04/11 02:16:08;;;;;;;;;;;;;;;;;;4865913;29;19923;-78
2023/04/11 02:18:34;;;;;;;;;;;;;;;;;;4884682;29;19916;-78
2023/04/11 02:21:00;;;;;;;;;;;;;;;;;;4888537;29;19920;-78
2023/04/11 02:23:26;;;;;;;;;;;;;;;;;;4887983;29;19922;-78
2023/04/11 02:25:51;;;;;;;;;;;;;;;;;;4870090;29;20010;-78
2023/04/11 02:28:17;;;;;;;;;;;;;;;;;;4901385;29;20384;-78
2023/04/11 02:30:42;;;;;;;;;;;;;;;;;;4901354;29;19915;-80
2023/04/11 02:33:09;;;;;;;;;;;;;;;;;;4886245;29;20051;-78
2023/04/11 02:35:34;;;;;;;;;;;;;;;;;;4884974;29;19951;-77
2023/04/11 02:38:00;;;;;;;;;;;;;;;;;;4884590;29;19923;-78
2023/04/11 02:40:25;;;;;;;;;;;;;;;;;;4883648;29;19922;-78
2023/04/11 02:42:51;;;;;;;;;;;;;;;;;;4883123;29;19951;-78
2023/04/11 02:45:16;;;;;;;;;;;;;;;;;;4882251;29;19926;-78
2023/04/11 02:47:42;;;;;;;;;;;;;;;;;;4897087;29;20292;-78
2023/04/11 02:50:07;;;;;;;;;;;;;;;;;;4898456;29;19916;-78
2023/04/11 02:52:40;;;;;;;;;;;;;;;;;;4899044;29;20419;-78
2023/04/11 02:55:06;;;;;;;;;;;;;;;;;;4898264;29;19916;-77
2023/04/11 02:57:32;;;;;;;;;;;;;;;;;;4898487;29;20291;-78
2023/04/11 02:59:57;;;;;;;;;;;;;;;;;;4898592;29;19951;-78
2023/04/11 03:02:30;;;;;;;;;;;;;;;;;;4883384;29;19965;-78
2023/04/11 03:04:57;;;;;;;;;;;;;;;;;;4898225;29;19915;-78
2023/04/11 03:07:22;;;;;;;;;;;;;;;;;;4899826;29;19938;-78
2023/04/11 03:09:48;;;;;;;;;;;;;;;;;;4882877;29;19916;-78
2023/04/11 03:12:13;;;;;;;;;;;;;;;;;;4867120;29;19971;-78
2023/04/11 03:14:49;;;;;;;;;;;;;;;;;;4896919;29;19947;-78
2023/04/11 03:17:14;;;;;;;;;;;;;;;;;;4897100;29;20398;-78
2023/04/11 03:19:40;;;;;;;;;;;;;;;;;;4897303;29;19915;-78
2023/04/11 03:22:05;;;;;;;;;;;;;;;;;;4896957;29;19963;-77
2023/04/11 03:24:31;;;;;;;;;;;;;;;;;;4896771;29;20376;-77
2023/04/11 03:26:57;;;;;;;;;;;;;;;;;;4881159;29;19915;-77
2023/04/11 03:29:22;;;;;;;;;;;;;;;;;;4897017;29;19915;-78
2023/04/11 03:31:57;;;;;;;;;;;;;;;;;;4896845;29;19922;-77
2023/04/11 03:34:24;;;;;;;;;;;;;;;;;;4896488;29;19915;-77
2023/04/11 03:36:50;;;;;;;;;;;;;;;;;;4880400;29;19922;-77
2023/04/11 03:39:15;;;;;;;;;;;;;;;;;;4896825;29;20276;-78
2023/04/11 03:41:41;;;;;;;;;;;;;;;;;;4880905;29;19951;-78
2023/04/11 03:44:08;;;;;;;;;;;;;;;;;;4896528;29;19927;-78
2023/04/11 03:46:33;;;;;;;;;;;;;;;;;;4880801;29;19920;-77
2023/04/11 03:48:59;;;;;;;;;;;;;;;;;;4896690;29;20380;-77
2023/04/11 03:51:25;;;;;;;;;;;;;;;;;;4865585;29;19966;-78
2023/04/11 03:53:59;;;;;;;;;;;;;;;;;;4881413;29;20105;-78
2023/04/11 03:56:29;;;;;;;;;;;;;;;;;;4896272;29;19926;-77
2023/04/11 03:58:54;;;;;;;;;;;;;;;;;;4881260;29;19916;-77
2023/04/11 04:01:23;;;;;;;;;;;;;;;;;;4880687;29;20311;-77
2023/04/11 04:03:50;;;;;;;;;;;;;;;;;;4896309;29;20394;-77
2023/04/11 04:06:16;;;;;;;;;;;;;;;;;;4880504;29;19927;-77
2023/04/11 04:08:42;;;;;;;;;;;;;;;;;;4880821;29;19916;-77
2023/04/11 04:11:08;;;;;;;;;;;;;;;;;;4895775;29;19967;-79
2023/04/11 04:13:35;;;;;;;;;;;;;;;;;;4884067;29;19978;-78
2023/04/11 04:16:09;;;;;;;;;;;;;;;;;;4883270;29;19923;-78
2023/04/11 04:18:35;;;;;;;;;;;;;;;;;;4897973;29;19916;-78
2023/04/11 04:21:01;;;;;;;;;;;;;;;;;;4884732;29;19962;-77
2023/04/11 04:23:26;;;;;;;;;;;;;;;;;;4901696;29;19923;-78
2023/04/11 04:26:14;;;;;;;;;;;;;;;;;;4887263;29;19919;-77
2023/04/11 04:28:46;;;;;;;;;;;;;;;;;;4899762;29;19977;-78
2023/04/11 04:31:21;;;;;;;;;;;;;;;;;;4900931;29;20394;-77
2023/04/11 04:33:48;;;;;;;;;;;;;;;;;;4900928;29;20027;-77
2023/04/11 04:36:18;;;;;;;;;;;;;;;;;;4884574;29;20360;-77
2023/04/11 04:38:46;;;;;;;;;;;;;;;;;;4899383;29;19915;-77
2023/04/11 04:41:20;;;;;;;;;;;;;;;;;;4897438;29;19920;-77
2023/04/11 04:43:56;;;;;;;;;;;;;;;;;;4898599;29;20375;-77
2023/04/11 04:46:35;;;;;;;;;;;;;;;;;;4899923;29;19916;-77
2023/04/11 04:49:01;;;;;;;;;;;;;;;;;;4901493;29;20356;-77
2023/04/11 04:51:29;;;;;;;;;;;;;;;;;;4887775;29;19915;-77
2023/04/11 04:53:56;;;;;;;;;;;;;;;;;;4907757;29;19919;-77
2023/04/11 04:56:22;;;;;;;;;;;;;;;;;;4897290;29;19958;-78
2023/04/11 04:58:47;;;;;;;;;;;;;;;;;;4915398;29;19922;-77
2023/04/11 05:01:15;;;;;;;;;;;;;;;;;;4917032;29;19920;-77
2023/04/11 05:03:45;;;;;;;;;;;;;;;;;;4912518;29;19923;-77
2023/04/11 05:06:15;;;;;;;;;;;;;;;;;;4895554;29;19943;-77
2023/04/11 05:08:44;;;;;;;;;;;;;;;;;;4894080;29;20010;-78
2023/04/11 05:11:10;;;;;;;;;;;;;;;;;;4894685;29;20402;-78
2023/04/11 05:13:35;;;;;;;;;;;;;;;;;;4883572;29;19915;-77
2023/04/11 05:16:03;;;;;;;;;;;;;;;;;;4912865;29;19943;-77
2023/04/11 05:18:29;;;;;;;;;;;;;;;;;;4905480;29;19919;-77
2023/04/11 05:20:55;;;;;;;;;;;;;;;;;;4887989;29;19916;-77
2023/04/11 05:23:24;;;;;;;;;;;;;;;;;;4886522;29;19919;-78
2023/04/11 05:25:51;;;;;;;;;;;;;;;;;;4885725;29;20372;-77
2023/04/11 05:28:16;;;;;;;;;;;;;;;;;;4886103;29;19921;-78
2023/04/11 05:30:42;;;;;;;;;;;;;;;;;;4886245;29;19922;-78
2023/04/11 05:33:07;;;;;;;;;;;;;;;;;;4871968;29;20335;-77
2023/04/11 05:35:33;;;;;;;;;;;;;;;;;;4903244;29;19915;-77
2023/04/11 05:37:58;;;;;;;;;;;;;;;;;;4906789;29;19915;-77
2023/04/11 05:40:24;;;;;;;;;;;;;;;;;;4892743;29;19919;-78
2023/04/11 05:42:49;;;;;;;;;;;;;;;;;;4908999;29;19943;-78
2023/04/11 05:45:15;;;;;;;;;;;;;;;;;;4905221;29;19943;-78
2023/04/11 05:47:41;;;;;;;;;;;;;;;;;;4888967;29;20384;-78
2023/04/11 05:50:07;;;;;;;;;;;;;;;;;;4902598;29;19947;-77
2023/04/11 05:52:32;;;;;;;;;;;;;;;;;;4899816;29;19971;-78
2023/04/11 05:54:58;;;;;;;;;;;;;;;;;;4900872;29;19915;-77
2023/04/11 05:57:23;;;;;;;;;;;;;;;;;;4901331;29;19919;-78
2023/04/11 05:59:51;;;;;;;;;;;;;;;;;;4899749;29;19919;-77
2023/04/11 06:02:17;;;;;;;;;;;;;;;;;;4900449;29;19919;-77
2023/04/11 06:04:42;;;;;;;;;;;;;;;;;;4898675;29;19915;-78
2023/04/11 06:07:08;;;;;;;;;;;;;;;;;;4900644;29;19915;-77
2023/04/11 06:09:33;;;;;;;;;;;;;;;;;;4899868;29;19955;-77
2023/04/11 06:11:58;;;;;;;;;;;;;;;;;;4884259;29;20276;-78
2023/04/11 06:14:24;;;;;;;;;;;;;;;;;;4900676;29;20010;-78
2023/04/11 06:16:49;;;;;;;;;;;;;;;;;;4900396;29;20340;-77
2023/04/11 06:19:15;;;;;;;;;;;;;;;;;;4899617;29;19916;-77
2023/04/11 06:21:40;;;;;;;;;;;;;;;;;;4900671;29;20423;-78
2023/04/11 06:24:05;;;;;;;;;;;;;;;;;;4900415;29;19911;-77
2023/04/11 06:26:31;;;;;;;;;;;;;;;;;;4899469;29;19923;-77
2023/04/11 06:28:56;;;;;;;;;;;;;;;;;;4898939;29;20380;-77
2023/04/11 06:31:22;;;;;;;;;;;;;;;;;;4898991;29;19955;-77
2023/04/11 06:33:47;;;;;;;;;;;;;;;;;;4899554;29;20021;-77
2023/04/11 06:36:12;;;;;;;;;;;;;;;;;;4899176;29;19915;-78
2023/04/11 06:38:39;;;;;;;;;;;;;;;;;;4900463;29;19979;-77
2023/04/11 06:41:04;;;;;;;;;;;;;;;;;;4900426;29;19919;-77
2023/04/11 06:43:31;;;;;;;;;;;;;;;;;;4916510;23;19970;-78
2023/04/11 06:45:56;;;;;;;;;;;;;;;;;;4898560;29;19924;-78
2023/04/11 06:48:23;;;;;;;;;;;;;;;;;;4898668;29;19916;-80
2023/04/11 06:50:48;;;;;;;;;;;;;;;;;;4897361;29;19920;-78
2023/04/11 06:53:14;;;;;;;;;;;;;;;;;;4881221;29;20348;-77
2023/04/11 06:55:39;;;;;;;;;;;;;;;;;;4881564;29;19916;-77
2023/04/11 06:58:05;;;;;;;;;;;;;;;;;;4897154;29;20380;-78
2023/04/11 07:00:30;;;;;;;;;;;;;;;;;;4898813;29;19943;-77
2023/04/11 07:02:56;;;;;;;;;;;;;;;;;;4866465;29;20402;-77
2023/04/11 07:05:21;;;;;;;;;;;;;;;;;;4897611;29;20294;-78
2023/04/11 07:07:47;;;;;;;;;;;;;;;;;;4866080;29;19921;-78
2023/04/11 07:10:12;;;;;;;;;;;;;;;;;;4881350;29;20399;-79
2023/04/11 07:12:38;;;;;;;;;;;;;;;;;;4895883;29;19924;-78
2023/04/11 07:15:03;;;;;;;;;;;;;;;;;;4881054;29;19959;-79
2023/04/11 07:17:29;;;;;;;;;;;;;;;;;;4896012;29;20157;-77
2023/04/11 07:19:57;;;;;;;;;;;;;;;;;;4898088;29;19916;-78
2023/04/11 07:22:23;;;;;;;;;;;;;;;;;;4896685;29;19947;-78
2023/04/11 07:24:49;;;;;;;;;;;;;;;;;;4880761;29;20010;-77
2023/04/11 07:27:15;;;;;;;;;;;;;;;;;;4895748;29;19967;-77
2023/04/11 07:29:41;;;;;;;;;;;;;;;;;;4881234;29;19998;-77
2023/04/11 07:32:07;;;;;;;;;;;;;;;;;;4912622;29;19947;-76
2023/04/11 07:34:32;;;;;;;;;;;;;;;;;;4881226;29;19958;-76
2023/04/11 07:36:59;;;;;;;;;;;;;;;;;;4895917;29;19916;-79
2023/04/11 07:39:25;;;;;;;;;;;;;;;;;;4886275;29;20414;-77
2023/04/11 07:41:51;;;;;;;;;;;;;;;;;;4884079;29;19963;-77
2023/04/11 07:44:17;;;;;;;;;;;;;;;;;;4885033;29;19958;-78
2023/04/11 07:46:42;;;;;;;;;;;;;;;;;;4892966;29;19920;-79
2023/04/11 07:49:07;;;;;;;;;;;;;;;;;;4884663;29;20391;-78
2023/04/11 07:51:35;;;;;;;;;;;;;;;;;;4883802;29;19916;-79
2023/04/11 07:54:01;;;;;;;;;;;;;;;;;;4880477;29;19926;-78
2023/04/11 07:56:26;;;;;;;;;;;;;;;;;;4895019;29;20348;-77
2023/04/11 07:58:52;;;;;;;;;;;;;;;;;;4893525;29;19912;-78
2023/04/11 08:01:17;;;;;;;;;;;;;;;;;;4885686;29;19934;-78
2023/04/11 08:03:43;;;;;;;;;;;;;;;;;;4897218;29;19967;-76
2023/04/11 08:06:08;;;;;;;;;;;;;;;;;;4897248;29;19955;-77
2023/04/11 08:08:34;;;;;;;;;;;;;;;;;;4892870;29;20362;-80
2023/04/11 08:10:59;;;;;;;;;;;;;;;;;;4883406;29;19915;-78
2023/04/11 08:13:25;;;;;;;;;;;;;;;;;;4903219;29;19915;-78
2023/04/11 08:15:50;;;;;;;;;;;;;;;;;;4889966;29;20344;-77
2023/04/11 08:18:20;;;;;;;;;;;;;;;;;;4882299;29;20291;-77
2023/04/11 08:20:45;;;;;;;;;;;;;;;;;;4892425;29;19915;-78
2023/04/11 08:23:11;;;;;;;;;;;;;;;;;;4883401;29;20014;-80
2023/04/11 08:25:37;;;;;;;;;;;;;;;;;;4901261;29;20392;-79
2023/04/11 08:28:03;;;;;;;;;;;;;;;;;;4876435;29;19915;-77
2023/04/11 08:30:29;;;;;;;;;;;;;;;;;;4895360;29;19927;-80
2023/04/11 08:32:55;;;;;;;;;;;;;;;;;;4899475;29;19916;-80
2023/04/11 08:35:20;;;;;;;;;;;;;;;;;;4891411;29;19923;-77
2023/04/11 08:37:47;;;;;;;;;;;;;;;;;;4876477;29;20379;-78
2023/04/11 08:40:13;;;;;;;;;;;;;;;;;;4869130;29;19971;-77
2023/04/11 08:42:39;;;;;;;;;;;;;;;;;;4896102;29;19999;-78
2023/04/11 08:45:07;;;;;;;;;;;;;;;;;;4886077;29;19970;-78
2023/04/11 08:47:32;;;;;;;;;;;;;;;;;;4886556;29;19923;-80
2023/04/11 08:50:02;;;;;;;;;;;;;;;;;;4894816;29;19962;-77
2023/04/11 08:52:28;;;;;;;;;;;;;;;;;;4867844;29;19951;-78
2023/04/11 08:54:53;;;;;;;;;;;;;;;;;;4878627;29;20414;-77
2023/04/11 08:57:19;;;;;;;;;;;;;;;;;;4887731;29;20430;-76
2023/04/11 08:59:44;;;;;;;;;;;;;;;;;;4899737;29;20447;-79
2023/04/11 09:02:10;;;;;;;;;;;;;;;;;;4885460;29;19920;-79
2023/04/11 09:04:35;;;;;;;;;;;;;;;;;;4879544;29;20391;-77
2023/04/11 09:07:02;;;;;;;;;;;;;;;;;;4885700;29;19919;-78
2023/04/11 09:09:28;;;;;;;;;;;;;;;;;;4889838;29;19915;-76
2023/04/11 09:11:54;;;;;;;;;;;;;;;;;;4891702;29;19916;-77
2023/04/11 09:14:19;;;;;;;;;;;;;;;;;;4883934;29;19935;-77
2023/04/11 09:16:45;;;;;;;;;;;;;;;;;;4882481;29;19967;-75
2023/04/11 09:19:10;;;;;;;;;;;;;;;;;;4892940;29;20371;-76
2023/04/11 09:21:36;;;;;;;;;;;;;;;;;;4873749;29;19919;-75
2023/04/11 09:24:01;;;;;;;;;;;;;;;;;;4886279;29;19915;-75
2023/04/11 09:26:27;;;;;;;;;;;;;;;;;;4895584;29;20287;-78
2023/04/11 09:28:52;;;;;;;;;;;;;;;;;;4883664;29;19915;-78
2023/04/11 09:31:18;;;;;;;;;;;;;;;;;;4909328;29;20006;-79
2023/04/11 09:33:43;;;;;;;;;;;;;;;;;;4894778;29;19998;-76
2023/04/11 09:36:09;;;;;;;;;;;;;;;;;;4894035;29;19915;-80
2023/04/11 09:38:37;;;;;;;;;;;;;;;;;;4911099;29;19920;-78
2023/04/11 09:41:02;;;;;;;;;;;;;;;;;;4881711;29;19971;-80
2023/04/11 09:43:28;;;;;;;;;;;;;;;;;;4904345;29;19922;-79
2023/04/11 09:45:53;;;;;;;;;;;;;;;;;;4892103;29;20284;-79
2023/04/11 09:48:19;;;;;;;;;;;;;;;;;;4883439;29;19916;-76
2023/04/11 09:50:44;;;;;;;;;;;;;;;;;;4909916;29;20329;-78
2023/04/11 09:53:10;;;;;;;;;;;;;;;;;;4885152;29;19923;-76
2023/04/11 09:55:35;;;;;;;;;;;;;;;;;;4888178;29;20336;-77
2023/04/11 09:58:01;;;;;;;;;;;;;;;;;;4891872;29;19919;-80
2023/04/11 10:00:31;;;;;;;;;;;;;;;;;;4899916;29;20022;-76
2023/04/11 10:02:56;;;;;;;;;;;;;;;;;;4892648;29;19920;-78
2023/04/11 10:05:24;;;;;;;;;;;;;;;;;;4886244;29;20311;-78
2023/04/11 10:07:50;;;;;;;;;;;;;;;;;;4904687;29;19937;-77
2023/04/11 10:10:16;;;;;;;;;;;;;;;;;;4898496;29;19916;-78
2023/04/11 10:12:41;;;;;;;;;;;;;;;;;;4897247;29;19951;-78
2023/04/11 10:15:10;;;;;;;;;;;;;;;;;;4892258;29;19919;-78
2023/04/11 10:17:35;;;;;;;;;;;;;;;;;;4872835;29;19916;-80
2023/04/11 10:20:01;;;;;;;;;;;;;;;;;;4884398;29;19968;-77
2023/04/11 10:22:26;;;;;;;;;;;;;;;;;;4909443;29;19995;-77
2023/04/11 10:24:52;;;;;;;;;;;;;;;;;;4881878;29;19916;-77
2023/04/11 10:27:17;;;;;;;;;;;;;;;;;;4890916;29;20341;-77
2023/04/11 10:29:42;;;;;;;;;;;;;;;;;;4889078;29;19966;-78
2023/04/11 10:32:08;;;;;;;;;;;;;;;;;;4893957;29;20339;-77
2023/04/11 10:34:40;;;;;;;;;;;;;;;;;;4894728;29;19962;-77
2023/04/11 10:37:09;;;;;;;;;;;;;;;;;;4883763;29;19931;-77
2023/04/11 10:39:35;;;;;;;;;;;;;;;;;;4894906;29;19970;-76
2023/04/11 10:42:01;;;;;;;;;;;;;;;;;;4897898;29;20285;-77
2023/04/11 10:44:26;;;;;;;;;;;;;;;;;;4882019;29;19927;-82
2023/04/11 10:46:52;;;;;;;;;;;;;;;;;;4894616;29;19939;-76
2023/04/11 10:49:18;;;;;;;;;;;;;;;;;;4871221;29;20014;-75
2023/04/11 10:51:43;;;;;;;;;;;;;;;;;;4900074;29;19954;-75
2023/04/11 10:54:09;;;;;;;;;;;;;;;;;;4902255;29;19915;-75
2023/04/11 10:56:34;;;;;;;;;;;;;;;;;;4897974;29;20332;-85
2023/04/11 10:59:00;;;;;;;;;;;;;;;;;;4886583;29;19958;-87
2023/04/11 11:01:25;;;;;;;;;;;;;;;;;;4904857;29;19946;-88
2023/04/11 11:03:51;;;;;;;;;;;;;;;;;;4890368;29;19923;-88
2023/04/11 11:06:17;;;;;;;;;;;;;;;;;;4897252;29;19916;-87
2023/04/11 11:08:45;;;;;;;;;;;;;;;;;;4878256;29;19971;-76
2023/04/11 11:11:11;;;;;;;;;;;;;;;;;;4884770;29;19970;-76
2023/04/11 11:13:36;;;;;;;;;;;;;;;;;;4887133;29;19916;-75
2023/04/11 11:16:05;;;;;;;;;;;;;;;;;;4893177;29;19922;-75
2023/04/11 11:18:30;;;;;;;;;;;;;;;;;;4882761;29;19912;-76
2023/04/11 11:20:56;;;;;;;;;;;;;;;;;;4895204;29;19916;-77
2023/04/11 11:23:21;;;;;;;;;;;;;;;;;;4896255;29;19975;-76
2023/04/11 11:25:46;;;;;;;;;;;;;;;;;;4903761;29;19915;-76
2023/04/11 11:28:12;;;;;;;;;;;;;;;;;;4896696;29;19915;-78
2023/04/11 11:30:37;;;;;;;;;;;;;;;;;;4881146;29;20383;-78
2023/04/11 11:33:03;;;;;;;;;;;;;;;;;;4897481;29;20607;-78
2023/04/11 11:35:28;;;;;;;;;;;;;;;;;;4888654;29;19963;-77
2023/04/11 11:37:54;;;;;;;;;;;;;;;;;;4905428;29;19922;-77
2023/04/11 11:40:20;;;;;;;;;;;;;;;;;;4906040;29;19912;-78
2023/04/11 11:42:46;;;;;;;;;;;;;;;;;;4878122;29;19919;-77
2023/04/11 11:45:11;;;;;;;;;;;;;;;;;;4884098;29;20435;-77
2023/04/11 11:47:37;;;;;;;;;;;;;;;;;;4907894;29;19916;-76
2023/04/11 11:50:03;;;;;;;;;;;;;;;;;;4862874;29;19916;-77
2023/04/11 11:52:28;;;;;;;;;;;;;;;;;;4893799;29;19920;-76
2023/04/11 11:54:53;;;;;;;;;;;;;;;;;;4865638;29;19923;-77
2023/04/11 11:57:19;;;;;;;;;;;;;;;;;;4903758;29;20398;-77
2023/04/11 11:59:44;;;;;;;;;;;;;;;;;;4889659;29;20396;-76
2023/04/11 12:02:10;;;;;;;;;;;;;;;;;;4884054;29;19926;-76
2023/04/11 12:04:36;;;;;;;;;;;;;;;;;;4894615;29;20383;-76
2023/04/11 12:07:02;;;;;;;;;;;;;;;;;;4866933;29;19926;-76
2023/04/11 12:09:27;;;;;;;;;;;;;;;;;;4887276;29;19916;-78
2023/04/11 12:11:53;;;;;;;;;;;;;;;;;;4891570;29;19922;-76
2023/04/11 12:14:18;;;;;;;;;;;;;;;;;;4881718;29;19916;-79
2023/04/11 12:16:44;;;;;;;;;;;;;;;;;;4892430;29;20002;-76
2023/04/11 12:19:10;;;;;;;;;;;;;;;;;;4884578;29;19938;-74
2023/04/11 12:21:35;;;;;;;;;;;;;;;;;;4887331;29;19991;-75
2023/04/11 12:24:00;;;;;;;;;;;;;;;;;;4890823;29;19919;-75
2023/04/11 12:26:26;;;;;;;;;;;;;;;;;;4895191;29;19920;-78
2023/04/11 12:28:52;;;;;;;;;;;;;;;;;;4893404;29;20337;-76
2023/04/11 12:31:17;;;;;;;;;;;;;;;;;;4883917;29;19921;-75
2023/04/11 12:33:43;;;;;;;;;;;;;;;;;;4896795;29;19915;-76
2023/04/11 12:36:08;;;;;;;;;;;;;;;;;;4881098;29;20410;-76
2023/04/11 12:38:33;;;;;;;;;;;;;;;;;;4893167;29;19916;-77
2023/04/11 12:40:59;;;;;;;;;;;;;;;;;;4882832;29;20392;-77
2023/04/11 12:43:24;;;;;;;;;;;;;;;;;;4887725;29;20007;-78
2023/04/11 12:45:50;;;;;;;;;;;;;;;;;;4938044;23;20418;-87
2023/04/11 12:48:15;;;;;;;;;;;;;;;;;;4908357;29;20427;-86
2023/04/11 12:50:41;;;;;;;;;;;;;;;;;;4936165;29;19915;-86
2023/04/11 12:53:06;;;;;;;;;;;;;;;;;;4910214;29;20284;-86
2023/04/11 12:55:32;;;;;;;;;;;;;;;;;;4913540;29;19973;-87
2023/04/11 12:57:58;;;;;;;;;;;;;;;;;;4912543;29;19958;-84
2023/04/11 13:00:28;;;;;;;;;;;;;;;;;;4915358;29;19982;-87
2023/04/11 13:02:56;;;;;;;;;;;;;;;;;;4913955;29;20355;-86
2023/04/11 13:05:24;;;;;;;;;;;;;;;;;;4922175;29;19911;-88
2023/04/11 13:07:57;;;;;;;;;;;;;;;;;;4918793;29;19921;-86
2023/04/11 13:10:23;;;;;;;;;;;;;;;;;;4891805;29;19915;-81
2023/04/11 13:12:52;;;;;;;;;;;;;;;;;;4926422;29;19922;-82
2023/04/11 13:15:17;;;;;;;;;;;;;;;;;;4931398;29;19919;-82
2023/04/11 13:17:42;;;;;;;;;;;;;;;;;;4923194;29;20271;-81
2023/04/11 13:20:08;;;;;;;;;;;;;;;;;;4930434;29;19915;-81
2023/04/11 13:22:34;;;;;;;;;;;;;;;;;;4930426;29;19919;-81
2023/04/11 13:24:59;;;;;;;;;;;;;;;;;;4915668;29;19915;-80
2023/04/11 13:27:25;;;;;;;;;;;;;;;;;;4934620;29;19982;-80
2023/04/11 13:29:50;;;;;;;;;;;;;;;;;;4928620;29;20235;-80
2023/04/11 13:32:15;;;;;;;;;;;;;;;;;;4939016;29;20294;-79
2023/04/11 13:34:41;;;;;;;;;;;;;;;;;;4939606;29;19922;-80
2023/04/11 13:37:06;;;;;;;;;;;;;;;;;;4943990;29;20382;-80
2023/04/11 13:39:32;;;;;;;;;;;;;;;;;;4929491;29;20010;-79
2023/04/11 13:41:57;;;;;;;;;;;;;;;;;;4941702;29;19954;-80
2023/04/11 13:44:23;;;;;;;;;;;;;;;;;;4922298;29;19961;-80
2023/04/11 13:46:48;;;;;;;;;;;;;;;;;;4927820;29;19962;-81
2023/04/11 13:49:15;;;;;;;;;;;;;;;;;;4940083;29;23075;-79
2023/04/11 13:51:41;;;;;;;;;;;;;;;;;;4932688;29;19915;-79
2023/04/11 13:54:06;;;;;;;;;;;;;;;;;;4940831;29;19922;-80
2023/04/11 13:56:32;;;;;;;;;;;;;;;;;;4894996;29;19962;-80
2023/04/11 14:02:08;;;;;;;;;;;;;;;;;;4912687;29;19923;-80
2023/04/11 14:04:33;;;;;;;;;;;;;;;;;;4925192;29;20391;-80
2023/04/11 14:06:58;;;;;;;;;;;;;;;;;;4931591;29;19968;-78
2023/04/11 14:09:24;;;;;;;;;;;;;;;;;;4920443;29;19922;-80
2023/04/11 14:11:50;;;;;;;;;;;;;;;;;;4933229;29;19915;-80
2023/04/11 14:14:15;;;;;;;;;;;;;;;;;;4925690;29;19928;-79
2023/04/11 14:16:41;;;;;;;;;;;;;;;;;;4926397;29;20401;-80
2023/04/11 14:19:06;;;;;;;;;;;;;;;;;;4933280;29;19923;-78
2023/04/11 14:21:31;;;;;;;;;;;;;;;;;;4919940;29;19923;-80
2023/04/11 14:23:57;;;;;;;;;;;;;;;;;;4929799;29;20324;-80
2023/04/11 14:26:22;;;;;;;;;;;;;;;;;;4925461;29;19962;-79
2023/04/11 14:28:47;;;;;;;;;;;;;;;;;;4927982;29;19915;-80
2023/04/11 14:31:13;;;;;;;;;;;;;;;;;;4919233;29;19946;-80
2023/04/11 14:33:39;;;;;;;;;;;;;;;;;;4936356;29;20402;-79
2023/04/11 14:36:04;;;;;;;;;;;;;;;;;;4930180;29;19919;-79
2023/04/11 14:38:29;;;;;;;;;;;;;;;;;;4930450;29;20351;-80
2023/04/11 14:40:55;;;;;;;;;;;;;;;;;;4930223;29;20391;-80
2023/04/11 14:43:20;;;;;;;;;;;;;;;;;;4901674;29;19962;-79
2023/04/11 14:45:46;;;;;;;;;;;;;;;;;;4931647;29;19919;-80
2023/04/11 14:48:12;;;;;;;;;;;;;;;;;;4925702;29;19962;-79
2023/04/11 14:50:37;;;;;;;;;;;;;;;;;;4925528;29;19919;-79
2023/04/11 14:53:02;;;;;;;;;;;;;;;;;;4916781;29;19915;-79
2023/04/11 14:55:28;;;;;;;;;;;;;;;;;;4936549;29;19911;-79
2023/04/11 14:57:53;;;;;;;;;;;;;;;;;;4889970;29;20286;-79
2023/04/11 15:00:19;;;;;;;;;;;;;;;;;;4928239;29;20294;-78
2023/04/11 15:02:45;;;;;;;;;;;;;;;;;;4927747;29;19934;-78
2023/04/11 15:05:10;;;;;;;;;;;;;;;;;;4934898;29;19915;-77
2023/04/11 15:07:36;;;;;;;;;;;;;;;;;;4922735;29;19934;-80
2023/04/11 15:10:01;;;;;;;;;;;;;;;;;;4930684;29;19994;-80
2023/04/11 15:12:26;;;;;;;;;;;;;;;;;;4927015;29;19954;-80
2023/04/11 15:14:52;;;;;;;;;;;;;;;;;;4922314;29;20414;-80
2023/04/11 15:17:18;;;;;;;;;;;;;;;;;;4932897;29;19914;-79
2023/04/11 15:19:43;;;;;;;;;;;;;;;;;;4916550;29;20455;-80
2023/04/11 15:22:09;;;;;;;;;;;;;;;;;;4916562;29;20527;-79
2023/04/11 15:24:34;;;;;;;;;;;;;;;;;;4915321;29;20272;-80
2023/04/11 15:27:00;;;;;;;;;;;;;;;;;;4929061;29;19986;-80
2023/04/11 15:29:25;;;;;;;;;;;;;;;;;;4918563;29;20018;-80
2023/04/11 15:31:51;;;;;;;;;;;;;;;;;;4899877;29;20005;-80
2023/04/11 15:34:16;;;;;;;;;;;;;;;;;;4926666;29;20403;-79
2023/04/11 15:36:43;;;;;;;;;;;;;;;;;;4926015;29;20331;-80
2023/04/11 15:39:09;;;;;;;;;;;;;;;;;;4933436;29;20398;-81
2023/04/11 15:41:35;;;;;;;;;;;;;;;;;;4917518;29;19923;-80
2023/04/11 15:44:00;;;;;;;;;;;;;;;;;;4927585;29;19965;-79
2023/04/11 15:46:26;;;;;;;;;;;;;;;;;;4925347;29;19914;-80
2023/04/11 15:48:51;;;;;;;;;;;;;;;;;;4922352;29;19915;-79
2023/04/11 15:51:17;;;;;;;;;;;;;;;;;;4931555;29;20023;-79
2023/04/11 15:53:42;;;;;;;;;;;;;;;;;;4919796;29;20405;-79
2023/04/11 15:56:08;;;;;;;;;;;;;;;;;;4927483;29;19947;-81
2023/04/11 15:58:33;;;;;;;;;;;;;;;;;;4927060;29;19914;-80
2023/04/11 16:01:02;;;;;;;;;;;;;;;;;;4933383;29;19915;-80
2023/04/11 16:03:30;;;;;;;;;;;;;;;;;;4902415;29;20276;-80
2023/04/11 16:05:55;;;;;;;;;;;;;;;;;;4927694;29;19919;-81
2023/04/11 16:08:21;;;;;;;;;;;;;;;;;;4924948;29;19915;-81
2023/04/11 16:10:46;;;;;;;;;;;;;;;;;;4922869;29;19922;-81
2023/04/11 16:13:12;;;;;;;;;;;;;;;;;;4930690;29;19915;-80
2023/04/11 16:15:37;;;;;;;;;;;;;;;;;;4919155;29;19921;-81
2023/04/11 16:18:03;;;;;;;;;;;;;;;;;;4928210;29;20331;-81
2023/04/11 16:20:28;;;;;;;;;;;;;;;;;;4926121;29;19919;-82
2023/04/11 16:22:54;;;;;;;;;;;;;;;;;;4920392;29;20391;-82
2023/04/11 16:25:20;;;;;;;;;;;;;;;;;;4932527;29;19914;-81
2023/04/11 16:27:45;;;;;;;;;;;;;;;;;;4930587;29;20402;-81
2023/04/11 16:30:11;;;;;;;;;;;;;;;;;;4903920;29;20303;-81
2023/04/11 16:32:36;;;;;;;;;;;;;;;;;;4899161;29;20002;-86
2023/04/11 16:35:02;;;;;;;;;;;;;;;;;;4897175;29;20289;-77
2023/04/11 16:37:27;;;;;;;;;;;;;;;;;;4906433;29;19923;-76
2023/04/11 16:39:53;;;;;;;;;;;;;;;;;;4921816;29;19922;-77